createdAt,value
2019-06-26T00:00:50.270Z,0.30
2019-06-26T00:03:23.164Z,0.30
2019-06-26T00:05:55.979Z,0.30
2019-06-26T00:08:28.789Z,0.30
2019-06-26T00:11:01.823Z,0.30
2019-06-26T00:13:34.622Z,0.30
2019-06-26T00:16:07.445Z,0.30
2019-06-26T00:18:40.316Z,0.30
2019-06-26T00:21:15.033Z,0.30
2019-06-26T00:23:47.944Z,0.30
2019-06-26T00:26:20.973Z,0.30
2019-06-26T00:28:53.766Z,0.30
2019-06-26T00:31:26.626Z,0.30
2019-06-26T00:33:59.496Z,0.30
2019-06-26T00:36:33.207Z,0.30
2019-06-26T00:39:06.593Z,0.30
2019-06-26T00:41:39.527Z,0.30
2019-06-26T00:44:12.352Z,0.30
2019-06-26T00:46:45.271Z,0.30
2019-06-26T00:49:18.418Z,0.30
2019-06-26T00:51:51.266Z,0.30
2019-06-26T00:54:24.228Z,0.30
2019-06-26T00:56:57.145Z,0.30
2019-06-26T00:59:29.961Z,0.30
2019-06-26T01:02:02.944Z,0.60
2019-06-26T01:04:38.959Z,0.30
2019-06-26T01:07:11.769Z,0.30
2019-06-26T01:09:44.682Z,0.20
2019-06-26T01:12:17.605Z,0.30
2019-06-26T01:14:50.560Z,0.30
2019-06-26T01:17:24.386Z,0.27
2019-06-26T01:19:57.190Z,0.30
2019-06-26T01:22:30.065Z,0.20
2019-06-26T01:25:03.216Z,0.20
2019-06-26T01:27:36.344Z,0.30
2019-06-26T01:30:09.869Z,0.30
2019-06-26T01:32:42.726Z,0.30
2019-06-26T01:35:15.541Z,0.30
2019-06-26T01:37:48.355Z,0.30
2019-06-26T01:40:21.164Z,0.30
2019-06-26T01:42:54.020Z,0.30
2019-06-26T01:45:26.870Z,0.30
2019-06-26T01:47:59.739Z,0.27
2019-06-26T01:50:32.598Z,0.30
2019-06-26T01:53:05.472Z,0.30
2019-06-26T01:55:38.524Z,0.30
2019-06-26T01:58:11.426Z,0.30
2019-06-26T02:00:45.647Z,0.30
2019-06-26T02:03:18.690Z,0.30
2019-06-26T02:05:51.505Z,0.30
2019-06-26T02:08:24.311Z,0.30
2019-06-26T02:10:57.229Z,0.30
2019-06-26T02:13:30.106Z,0.27
2019-06-26T02:16:03.324Z,0.30
2019-06-26T02:18:40.632Z,0.30
2019-06-26T02:21:14.425Z,0.40
2019-06-26T02:23:47.258Z,0.30
2019-06-26T02:26:20.705Z,0.30
2019-06-26T02:28:53.536Z,0.30
2019-06-26T02:31:26.356Z,0.30
2019-06-26T02:33:59.175Z,0.30
2019-06-26T02:36:31.975Z,0.30
2019-06-26T02:39:06.192Z,0.30
2019-06-26T02:41:39.038Z,0.30
2019-06-26T02:44:11.898Z,0.30
2019-06-26T02:46:44.707Z,0.30
2019-06-26T02:49:17.533Z,0.30
2019-06-26T02:51:50.333Z,0.30
2019-06-26T02:54:24.026Z,0.30
2019-06-26T02:56:56.980Z,0.30
2019-06-26T02:59:29.841Z,0.30
2019-06-26T03:02:02.770Z,0.30
2019-06-26T03:04:35.585Z,0.30
2019-06-26T03:07:08.419Z,0.30
2019-06-26T03:09:41.293Z,0.30
2019-06-26T03:12:15.259Z,0.57
2019-06-26T03:14:48.134Z,0.20
2019-06-26T03:17:21.263Z,0.30
2019-06-26T03:19:54.040Z,0.30
2019-06-26T03:22:28.837Z,0.30
2019-06-26T03:25:01.588Z,0.30
2019-06-26T03:27:34.444Z,0.30
2019-06-26T03:30:08.872Z,0.30
2019-06-26T03:32:41.931Z,0.30
2019-06-26T03:35:14.792Z,0.30
2019-06-26T03:37:47.633Z,0.30
2019-06-26T03:40:20.477Z,0.30
2019-06-26T03:42:53.359Z,0.60
2019-06-26T03:45:26.648Z,2.43
2019-06-26T03:47:59.729Z,0.30
2019-06-26T03:50:32.631Z,0.30
2019-06-26T03:53:05.815Z,0.30
2019-06-26T03:55:39.990Z,0.30
2019-06-26T03:58:12.844Z,0.30
2019-06-26T04:00:45.806Z,0.30
2019-06-26T04:03:18.640Z,0.30
2019-06-26T04:05:51.509Z,0.30
2019-06-26T04:08:24.567Z,0.30
2019-06-26T04:10:57.331Z,0.20
2019-06-26T04:13:30.315Z,0.30
2019-06-26T04:16:03.346Z,0.30
2019-06-26T04:18:36.250Z,0.30
2019-06-26T04:21:09.164Z,0.30
2019-06-26T04:23:42.009Z,0.30
2019-06-26T04:26:14.824Z,0.30
2019-06-26T04:28:47.744Z,0.30
2019-06-26T04:31:20.573Z,0.30
2019-06-26T04:33:53.333Z,0.30
2019-06-26T04:36:26.213Z,0.30
2019-06-26T04:38:59.064Z,0.30
2019-06-26T04:41:31.977Z,0.30
2019-06-26T04:44:04.881Z,0.30
2019-06-26T04:46:37.671Z,0.30
2019-06-26T04:49:10.503Z,0.30
2019-06-26T04:51:43.318Z,0.30
2019-06-26T04:54:17.970Z,0.30
2019-06-26T04:56:50.756Z,0.80
2019-06-26T04:59:23.624Z,0.30
2019-06-26T05:01:56.462Z,0.30
2019-06-26T05:04:29.288Z,0.30
2019-06-26T05:07:02.135Z,1.07
2019-06-26T05:09:35.027Z,0.90
2019-06-26T05:12:07.824Z,0.57
2019-06-26T05:14:40.634Z,0.30
2019-06-26T05:17:13.473Z,0.30
2019-06-26T05:19:46.462Z,0.30
2019-06-26T05:22:19.282Z,0.30
2019-06-26T05:24:52.146Z,0.30
2019-06-26T05:27:24.957Z,0.30
2019-06-26T05:29:58.784Z,0.30
2019-06-26T05:32:31.700Z,0.30
2019-06-26T05:35:05.608Z,0.30
2019-06-26T05:37:38.480Z,0.30
2019-06-26T05:40:12.418Z,0.30
2019-06-26T05:42:45.314Z,1.23
2019-06-26T05:45:18.977Z,0.90
2019-06-26T05:47:51.826Z,0.30
2019-06-26T05:50:25.050Z,0.30
2019-06-26T05:52:57.886Z,0.30
2019-06-26T05:55:30.789Z,0.50
2019-06-26T05:58:03.757Z,0.30
2019-06-26T06:00:36.551Z,0.77
2019-06-26T06:03:09.381Z,0.67
2019-06-26T06:05:42.280Z,0.40
2019-06-26T06:08:15.144Z,1.37
2019-06-26T06:10:48.539Z,1.27
2019-06-26T06:13:21.491Z,1.17
2019-06-26T06:15:54.297Z,0.43
2019-06-26T06:18:27.132Z,1.60
2019-06-26T06:20:59.975Z,0.40
2019-06-26T06:23:33.995Z,0.30
2019-06-26T06:26:06.819Z,0.30
2019-06-26T06:28:39.772Z,2.43
2019-06-26T06:31:12.620Z,1.40
2019-06-26T06:33:45.491Z,0.30
2019-06-26T06:36:18.371Z,0.30
2019-06-26T06:38:51.502Z,1.23
2019-06-26T06:41:24.467Z,2.70
2019-06-26T06:43:57.310Z,0.60
2019-06-26T06:46:30.156Z,0.30
2019-06-26T06:49:03.271Z,0.97
2019-06-26T06:51:36.190Z,0.50
2019-06-26T06:54:09.021Z,0.40
2019-06-26T06:56:41.928Z,0.30
2019-06-26T06:59:14.764Z,0.30
2019-06-26T07:01:47.714Z,0.60
2019-06-26T07:04:20.539Z,0.93
2019-06-26T07:06:53.379Z,0.60
2019-06-26T07:09:26.215Z,0.30
2019-06-26T07:11:59.090Z,1.17
2019-06-26T07:14:31.862Z,0.40
2019-06-26T07:17:19.448Z,0.50
2019-06-26T07:19:39.479Z,1.23
2019-06-26T07:22:12.306Z,0.30
2019-06-26T07:24:45.152Z,0.30
2019-06-26T07:27:20.559Z,1.00
2019-06-26T07:29:53.377Z,0.60
2019-06-26T07:32:26.242Z,0.70
2019-06-26T07:34:59.210Z,0.30
2019-06-26T07:37:32.116Z,2.50
2019-06-26T07:40:06.864Z,0.40
2019-06-26T07:42:41.823Z,0.50
2019-06-26T07:45:16.545Z,0.60
2019-06-26T07:47:49.379Z,0.30
2019-06-26T07:50:22.229Z,0.63
2019-06-26T07:52:55.084Z,0.30
2019-06-26T07:55:27.932Z,0.77
2019-06-26T07:58:00.782Z,0.40
2019-06-26T08:00:33.586Z,0.40
2019-06-26T08:03:06.541Z,0.90
2019-06-26T08:05:42.702Z,2.37
2019-06-26T08:08:14.914Z,2.00
2019-06-26T08:10:47.989Z,1.17
2019-06-26T08:13:23.803Z,2.23
2019-06-26T08:15:56.619Z,2.87
2019-06-26T08:18:29.462Z,0.40
2019-06-26T08:21:12.109Z,1.17
2019-06-26T08:23:38.140Z,1.93
2019-06-26T08:26:11.091Z,0.40
2019-06-26T08:28:43.946Z,1.13
2019-06-26T08:31:16.780Z,0.30
2019-06-26T08:33:49.706Z,1.47
2019-06-26T08:36:22.522Z,1.90
2019-06-26T08:38:55.471Z,0.30
2019-06-26T08:41:28.324Z,0.30
2019-06-26T08:44:01.181Z,0.60
2019-06-26T08:46:34.052Z,1.67
2019-06-26T08:49:21.129Z,0.30
2019-06-26T08:51:43.027Z,0.70
2019-06-26T08:54:15.916Z,1.47
2019-06-26T08:56:48.864Z,0.97
2019-06-26T08:59:21.687Z,0.90
2019-06-26T09:01:54.541Z,0.80
2019-06-26T09:04:27.360Z,0.60
2019-06-26T09:07:00.198Z,0.37
2019-06-26T09:09:33.070Z,0.50
2019-06-26T09:12:05.907Z,0.87
2019-06-26T09:14:38.743Z,3.27
2019-06-26T09:17:11.553Z,1.37
2019-06-26T09:19:44.357Z,0.40
2019-06-26T09:22:18.273Z,0.30
2019-06-26T09:24:51.344Z,0.97
2019-06-26T09:27:24.157Z,1.37
2019-06-26T09:29:57.188Z,2.87
2019-06-26T09:32:30.012Z,0.37
2019-06-26T09:35:03.308Z,1.73
2019-06-26T09:37:37.135Z,0.50
2019-06-26T09:40:10.664Z,0.40
2019-06-26T09:42:43.710Z,0.83
2019-06-26T09:45:19.514Z,0.30
2019-06-26T09:47:52.315Z,0.60
2019-06-26T09:50:25.167Z,1.07
2019-06-26T09:52:58.074Z,0.87
2019-06-26T09:55:30.859Z,0.30
2019-06-26T09:58:03.831Z,1.90
2019-06-26T10:00:36.747Z,0.30
2019-06-26T10:03:09.919Z,0.83
2019-06-26T10:05:42.704Z,0.50
2019-06-26T10:08:15.595Z,0.30
2019-06-26T10:10:48.402Z,1.17
2019-06-26T10:13:21.557Z,2.93
2019-06-26T10:15:54.499Z,0.30
2019-06-26T10:18:27.365Z,1.23
2019-06-26T10:21:00.447Z,1.73
2019-06-26T10:23:33.353Z,0.87
2019-06-26T10:26:06.366Z,1.77
2019-06-26T10:28:39.313Z,1.53
2019-06-26T10:31:12.274Z,0.40
2019-06-26T10:33:47.858Z,2.63
2019-06-26T10:36:24.343Z,1.43
2019-06-26T10:38:55.439Z,0.30
2019-06-26T10:41:28.390Z,1.90
2019-06-26T10:44:01.243Z,0.50
2019-06-26T10:46:34.183Z,1.63
2019-06-26T10:49:07.045Z,0.30
2019-06-26T10:51:39.874Z,2.53
2019-06-26T10:54:12.709Z,1.43
2019-06-26T10:56:45.678Z,3.10
2019-06-26T10:59:18.529Z,0.87
2019-06-26T11:01:51.391Z,3.33
2019-06-26T11:04:24.302Z,1.17
2019-06-26T11:06:57.646Z,0.57
2019-06-26T11:09:31.603Z,7.03
2019-06-26T11:12:04.510Z,2.40
2019-06-26T11:14:37.492Z,0.30
2019-06-26T11:17:10.332Z,0.77
2019-06-26T11:19:44.562Z,0.30
2019-06-26T11:22:17.676Z,0.50
2019-06-26T11:24:50.623Z,0.50
2019-06-26T11:27:23.692Z,0.30
2019-06-26T11:29:56.508Z,1.33
2019-06-26T11:32:29.457Z,0.50
2019-06-26T11:35:02.834Z,0.30
2019-06-26T11:37:36.361Z,2.30
2019-06-26T11:40:10.095Z,0.50
2019-06-26T11:42:43.095Z,0.40
2019-06-26T11:45:16.766Z,1.07
2019-06-26T11:47:49.787Z,1.83
2019-06-26T11:50:23.143Z,2.90
2019-06-26T11:52:56.214Z,1.63
2019-06-26T11:55:29.228Z,0.97
2019-06-26T11:58:02.357Z,4.33
2019-06-26T12:00:35.772Z,0.30
2019-06-26T12:03:08.762Z,1.80
2019-06-26T12:05:41.755Z,1.70
2019-06-26T12:08:18.309Z,0.77
2019-06-26T12:10:49.876Z,1.93
2019-06-26T12:13:22.956Z,1.27
2019-06-26T12:15:56.097Z,0.30
2019-06-26T12:18:29.066Z,0.50
2019-06-26T12:21:02.204Z,1.13
2019-06-26T12:23:35.141Z,1.40
2019-06-26T12:26:09.427Z,4.07
2019-06-26T12:28:42.404Z,0.30
2019-06-26T12:31:16.434Z,0.30
2019-06-26T12:33:49.314Z,1.50
2019-06-26T12:36:22.381Z,0.30
2019-06-26T12:38:55.341Z,4.30
2019-06-26T12:41:28.402Z,0.30
2019-06-26T12:44:01.359Z,0.30
2019-06-26T12:46:34.349Z,0.50
2019-06-26T12:49:08.838Z,2.40
2019-06-26T12:51:41.653Z,1.03
2019-06-26T12:54:14.567Z,0.43
2019-06-26T12:56:47.448Z,0.30
2019-06-26T12:59:20.417Z,0.40
2019-06-26T13:01:53.361Z,0.40
2019-06-26T13:04:26.368Z,0.50
2019-06-26T13:07:00.438Z,1.40
2019-06-26T13:09:33.317Z,0.30
2019-06-26T13:12:06.204Z,0.30
2019-06-26T13:14:39.292Z,3.37
2019-06-26T13:17:12.930Z,0.30
2019-06-26T13:19:45.932Z,0.97
2019-06-26T13:22:18.862Z,1.53
2019-06-26T13:24:51.713Z,0.30
2019-06-26T13:27:24.547Z,0.30
2019-06-26T13:29:57.494Z,0.97
2019-06-26T13:32:30.407Z,1.03
2019-06-26T13:35:03.944Z,0.30
2019-06-26T13:37:36.885Z,1.27
2019-06-26T13:40:10.028Z,1.40
2019-06-26T13:42:42.841Z,2.00
2019-06-26T13:45:15.876Z,3.33
2019-06-26T13:47:48.644Z,1.17
2019-06-26T13:50:21.819Z,1.60
2019-06-26T13:52:54.623Z,1.50
2019-06-26T13:55:27.476Z,1.03
2019-06-26T13:58:00.349Z,0.40
2019-06-26T14:00:33.232Z,0.83
2019-06-26T14:03:06.052Z,1.30
2019-06-26T14:05:38.951Z,5.40
2019-06-26T14:08:11.907Z,1.07
2019-06-26T14:10:44.789Z,1.37
2019-06-26T14:13:17.689Z,0.97
2019-06-26T14:15:50.522Z,1.00
2019-06-26T14:18:23.360Z,1.27
2019-06-26T14:20:56.193Z,0.40
2019-06-26T14:23:29.010Z,2.03
2019-06-26T14:26:01.866Z,0.83
2019-06-26T14:28:34.766Z,0.63
2019-06-26T14:31:08.065Z,0.30
2019-06-26T14:33:42.846Z,0.30
2019-06-26T14:36:15.860Z,0.77
2019-06-26T14:38:48.663Z,2.00
2019-06-26T14:41:21.557Z,0.97
2019-06-26T14:43:54.461Z,0.70
2019-06-26T14:46:29.120Z,0.33
2019-06-26T14:49:02.060Z,1.77
2019-06-26T14:51:43.921Z,0.60
2019-06-26T14:54:09.606Z,10.03
2019-06-26T14:56:42.465Z,9.60
2019-06-26T14:59:16.406Z,7.00
2019-06-26T15:01:49.342Z,1.90
2019-06-26T15:04:22.164Z,1.57
2019-06-26T15:06:55.010Z,0.30
2019-06-26T15:09:27.854Z,20.53
2019-06-26T15:12:00.736Z,7.10
2019-06-26T15:14:34.153Z,5.10
2019-06-26T15:17:07.025Z,0.40
2019-06-26T15:19:40.929Z,2.63
2019-06-26T15:22:13.786Z,1.80
2019-06-26T15:24:46.979Z,8.10
2019-06-26T15:27:19.800Z,7.20
2019-06-26T15:29:52.752Z,5.03
2019-06-26T15:32:25.783Z,7.07
2019-06-26T15:34:58.616Z,1.43
2019-06-26T15:37:31.603Z,7.50
2019-06-26T15:40:06.656Z,3.50
2019-06-26T15:42:39.501Z,2.30
2019-06-26T15:45:12.957Z,7.30
2019-06-26T15:47:46.868Z,6.83
2019-06-26T15:50:20.005Z,3.33
2019-06-26T15:52:52.899Z,9.67
2019-06-26T15:55:25.722Z,1.07
2019-06-26T15:57:58.780Z,13.83
2019-06-26T16:00:31.723Z,2.90
2019-06-26T16:03:04.828Z,3.00
2019-06-26T16:05:37.664Z,5.00
2019-06-26T16:08:10.530Z,4.90
2019-06-26T16:10:43.427Z,4.63
2019-06-26T16:13:16.275Z,6.67
2019-06-26T16:15:50.217Z,6.63
2019-06-26T16:18:43.366Z,1.07
2019-06-26T16:21:17.442Z,3.63
2019-06-26T16:23:50.293Z,6.17
2019-06-26T16:26:23.236Z,1.33
2019-06-26T16:28:56.048Z,3.90
2019-06-26T16:31:28.890Z,6.33
2019-06-26T16:34:01.714Z,5.00
2019-06-26T16:36:34.755Z,14.83
2019-06-26T16:39:08.029Z,7.47
2019-06-26T16:41:41.071Z,6.67
2019-06-26T16:44:14.087Z,3.13
2019-06-26T16:46:47.082Z,5.40
2019-06-26T16:49:20.027Z,3.77
2019-06-26T16:51:52.956Z,7.60
2019-06-26T16:54:26.028Z,4.17
2019-06-26T16:56:59.005Z,2.00
2019-06-26T16:59:31.888Z,6.87
2019-06-26T17:02:07.034Z,5.87
2019-06-26T17:04:39.795Z,2.33
2019-06-26T17:07:12.769Z,5.70
2019-06-26T17:09:45.731Z,5.50
2019-06-26T17:12:19.046Z,2.57
2019-06-26T17:14:52.152Z,3.23
2019-06-26T17:17:25.083Z,2.57
2019-06-26T17:19:58.154Z,12.73
2019-06-26T17:22:32.274Z,5.30
2019-06-26T17:25:05.881Z,2.10
2019-06-26T17:27:38.924Z,4.63
2019-06-26T17:30:12.644Z,3.43
2019-06-26T17:32:45.819Z,5.90
2019-06-26T17:35:18.831Z,2.40
2019-06-26T17:37:51.774Z,4.00
2019-06-26T17:40:24.898Z,2.47
2019-06-26T17:43:11.305Z,1.67
2019-06-26T17:45:32.718Z,3.67
2019-06-26T17:48:05.609Z,2.50
2019-06-26T17:50:38.594Z,2.40
2019-06-26T17:53:21.051Z,2.47
2019-06-26T17:55:46.483Z,2.83
2019-06-26T17:58:19.361Z,2.63
2019-06-26T18:00:52.381Z,2.70
2019-06-26T18:03:25.334Z,2.93
2019-06-26T18:05:58.284Z,4.70
2019-06-26T18:08:31.361Z,7.33
2019-06-26T18:11:04.333Z,1.50
2019-06-26T18:13:37.385Z,1.80
2019-06-26T18:16:10.211Z,0.87
2019-06-26T18:18:43.069Z,5.63
2019-06-26T18:21:15.933Z,3.00
2019-06-26T18:23:49.027Z,1.80
2019-06-26T18:26:21.929Z,3.13
2019-06-26T18:28:54.868Z,11.70
2019-06-26T18:31:30.547Z,11.20
2019-06-26T18:34:02.465Z,15.13
2019-06-26T18:36:36.553Z,7.40
2019-06-26T18:39:09.494Z,10.40
2019-06-26T18:41:42.313Z,12.43
2019-06-26T18:44:15.343Z,4.23
2019-06-26T18:46:48.210Z,2.07
2019-06-26T18:49:21.183Z,9.50
2019-06-26T18:51:54.043Z,10.00
2019-06-26T18:54:27.045Z,5.67
2019-06-26T18:57:00.034Z,10.83
2019-06-26T18:59:32.908Z,5.23
2019-06-26T19:02:06.440Z,8.80
2019-06-26T19:04:39.429Z,8.37
2019-06-26T19:07:12.429Z,8.67
2019-06-26T19:09:45.296Z,2.87
2019-06-26T19:12:18.145Z,5.20
2019-06-26T19:14:51.290Z,4.60
2019-06-26T19:17:24.520Z,5.30
2019-06-26T19:19:57.435Z,4.90
2019-06-26T19:22:30.424Z,4.20
2019-06-26T19:25:04.015Z,3.50
2019-06-26T19:27:37.005Z,6.03
2019-06-26T19:30:11.594Z,4.70
2019-06-26T19:32:44.681Z,3.20
2019-06-26T19:35:19.446Z,3.47
2019-06-26T19:37:52.547Z,4.23
2019-06-26T19:40:25.546Z,2.83
2019-06-26T19:42:58.571Z,18.03
2019-06-26T19:45:31.580Z,12.50
2019-06-26T19:48:04.815Z,10.70
2019-06-26T19:50:37.729Z,10.43
2019-06-26T19:53:10.629Z,7.80
2019-06-26T19:55:43.531Z,13.50
2019-06-26T19:58:16.439Z,12.33
2019-06-26T20:00:49.517Z,11.40
2019-06-26T20:03:22.539Z,8.27
2019-06-26T20:05:55.433Z,8.73
2019-06-26T20:08:28.275Z,3.77
2019-06-26T20:11:01.190Z,9.33
2019-06-26T20:13:34.163Z,1.70
2019-06-26T20:16:07.160Z,1.20
2019-06-26T20:18:40.087Z,2.93
2019-06-26T20:21:13.085Z,1.93
2019-06-26T20:23:46.222Z,0.60
2019-06-26T20:26:19.256Z,0.30
2019-06-26T20:28:52.366Z,0.57
2019-06-26T20:31:25.211Z,0.70
2019-06-26T20:33:58.179Z,1.70
2019-06-26T20:36:31.060Z,1.07
2019-06-26T20:39:05.086Z,1.40
2019-06-26T20:41:38.395Z,1.90
2019-06-26T20:44:11.378Z,2.77
2019-06-26T20:46:46.047Z,2.10
2019-06-26T20:49:19.054Z,0.97
2019-06-26T20:51:51.922Z,0.40
2019-06-26T20:54:25.172Z,0.60
2019-06-26T20:57:00.005Z,2.20
2019-06-26T20:59:32.801Z,2.13
2019-06-26T21:02:05.693Z,7.80
2019-06-26T21:04:38.650Z,3.80
2019-06-26T21:07:11.553Z,2.47
2019-06-26T21:09:44.351Z,3.67
2019-06-26T21:12:17.154Z,2.33
2019-06-26T21:14:49.948Z,2.67
2019-06-26T21:17:25.668Z,0.70
2019-06-26T21:19:57.603Z,2.57
2019-06-26T21:22:30.460Z,4.73
2019-06-26T21:25:17.862Z,3.40
2019-06-26T21:27:39.340Z,0.70
2019-06-26T21:30:12.946Z,1.77
2019-06-26T21:32:45.910Z,1.60
2019-06-26T21:35:18.986Z,1.10
2019-06-26T21:37:51.985Z,0.87
2019-06-26T21:40:25.199Z,3.87
2019-06-26T21:42:58.179Z,0.93
2019-06-26T21:45:31.143Z,1.83
2019-06-26T21:48:04.171Z,0.60
2019-06-26T21:50:37.140Z,1.23
2019-06-26T21:53:10.291Z,1.43
2019-06-26T21:55:46.033Z,2.03
2019-06-26T21:58:37.594Z,2.20
2019-06-26T22:01:29.721Z,1.47
2019-06-26T22:04:21.664Z,1.70
2019-06-26T22:06:59.671Z,2.93
2019-06-26T22:09:51.176Z,2.07
2019-06-26T22:12:24.621Z,3.60
2019-06-26T22:14:57.850Z,3.50
2019-06-26T22:17:30.875Z,2.90
2019-06-26T22:20:09.763Z,1.20
2019-06-26T22:22:40.941Z,0.83
2019-06-26T22:25:14.595Z,1.97
2019-06-26T22:27:47.630Z,0.60
2019-06-26T22:30:22.541Z,2.07
2019-06-26T22:32:55.710Z,1.80
2019-06-26T22:35:31.134Z,3.50
2019-06-26T22:38:05.979Z,4.43
2019-06-26T22:40:38.756Z,1.03
2019-06-26T22:43:11.568Z,2.80
2019-06-26T22:45:44.464Z,6.03
2019-06-26T22:48:17.284Z,2.50
2019-06-26T22:50:50.115Z,1.97
2019-06-26T22:53:22.984Z,4.73
2019-06-26T22:56:07.203Z,3.40
2019-06-26T22:58:30.804Z,1.57
2019-06-26T23:01:03.940Z,4.90
2019-06-26T23:03:36.778Z,4.60
2019-06-26T23:06:09.764Z,5.13
2019-06-26T23:08:42.586Z,2.50
2019-06-26T23:11:15.516Z,3.37
2019-06-26T23:13:48.484Z,3.40
2019-06-26T23:16:21.336Z,4.50
2019-06-26T23:18:54.169Z,1.73
2019-06-26T23:21:27.093Z,2.60
2019-06-26T23:23:59.923Z,3.87
2019-06-26T23:26:32.933Z,1.90
2019-06-26T23:29:05.776Z,0.67
2019-06-26T23:31:38.655Z,2.40
2019-06-26T23:34:11.457Z,2.63
2019-06-26T23:36:44.298Z,3.40
2019-06-26T23:39:17.361Z,2.97
2019-06-26T23:41:50.161Z,1.47
2019-06-26T23:44:23.000Z,3.23
2019-06-26T23:46:55.835Z,5.43
2019-06-26T23:49:28.655Z,4.90
2019-06-26T23:52:02.817Z,6.50
2019-06-26T23:54:35.620Z,3.83
2019-06-26T23:57:08.492Z,4.77
2019-06-26T23:59:41.287Z,5.50
